createdAt,value
2022-10-19T00:04:48.692Z,4.43
2022-10-19T00:09:51.373Z,2.60
2022-10-19T00:14:55.333Z,2.40
2022-10-19T00:19:58.288Z,2.05
2022-10-19T00:25:00.906Z,2.38
2022-10-19T00:30:05.967Z,1.60
2022-10-19T00:35:09.103Z,2.55
2022-10-19T00:40:12.605Z,2.58
2022-10-19T00:45:18.731Z,2.35
2022-10-19T00:50:21.523Z,2.78
2022-10-19T00:55:24.671Z,2.97
2022-10-19T01:00:28.639Z,3.15
2022-10-19T01:05:32.103Z,3.30
2022-10-19T01:10:55.794Z,3.28
2022-10-19T01:16:15.657Z,3.13
2022-10-19T01:21:22.624Z,2.17
2022-10-19T01:26:37.730Z,2.60
2022-10-19T01:31:46.693Z,2.75
2022-10-19T01:36:56.036Z,2.33
2022-10-19T01:42:03.125Z,1.95
2022-10-19T01:47:09.083Z,2.00
2022-10-19T01:52:14.373Z,2.22
2022-10-19T01:57:21.562Z,2.85
2022-10-19T02:02:26.602Z,2.78
2022-10-19T02:07:29.423Z,2.60
2022-10-19T02:12:32.986Z,2.78
2022-10-19T02:17:41.604Z,3.40
2022-10-19T02:22:44.683Z,3.85
2022-10-19T02:27:47.286Z,2.33
2022-10-19T02:32:51.711Z,3.25
2022-10-19T02:37:54.509Z,2.67
2022-10-19T02:43:00.136Z,2.70
2022-10-19T02:48:07.288Z,2.53
2022-10-19T02:53:10.090Z,2.08
2022-10-19T02:58:12.701Z,2.85
2022-10-19T03:03:16.628Z,3.00
2022-10-19T03:08:19.254Z,2.60
2022-10-19T03:13:21.828Z,2.33
2022-10-19T03:18:25.788Z,3.60
2022-10-19T03:23:28.338Z,4.18
2022-10-19T03:28:31.371Z,3.15
2022-10-19T03:33:35.348Z,3.20
2022-10-19T03:38:37.953Z,3.58
2022-10-19T03:43:41.171Z,3.05
2022-10-19T03:48:45.164Z,2.97
2022-10-19T03:53:48.162Z,2.92
2022-10-19T03:58:51.922Z,2.30
2022-10-19T04:03:56.075Z,3.10
2022-10-19T04:08:59.254Z,3.63
2022-10-19T04:14:02.883Z,3.13
2022-10-19T04:19:07.224Z,2.92
2022-10-19T04:24:12.834Z,3.20
2022-10-19T04:29:16.018Z,2.80
2022-10-19T04:34:20.511Z,2.65
2022-10-19T04:39:23.276Z,2.65
2022-10-19T04:44:26.028Z,2.20
2022-10-19T04:49:30.201Z,2.97
2022-10-19T04:54:32.800Z,2.58
2022-10-19T04:59:35.580Z,2.22
2022-10-19T05:04:41.828Z,2.30
2022-10-19T05:09:47.668Z,2.15
2022-10-19T05:14:50.273Z,1.65
2022-10-19T05:19:54.453Z,2.28
2022-10-19T05:24:58.190Z,1.92
2022-10-19T05:30:01.114Z,1.63
2022-10-19T05:35:05.725Z,1.45
2022-10-19T05:40:09.817Z,1.73
2022-10-19T05:45:12.426Z,1.80
2022-10-19T05:50:16.567Z,1.70
2022-10-19T05:55:19.179Z,2.22
2022-10-19T06:00:21.996Z,1.85
2022-10-19T06:05:26.118Z,1.70
2022-10-19T06:10:28.884Z,2.05
2022-10-19T06:15:35.734Z,1.90
2022-10-19T06:20:41.706Z,1.40
2022-10-19T06:25:44.683Z,2.03
2022-10-19T06:30:47.508Z,2.10
2022-10-19T06:35:51.564Z,2.17
2022-10-19T06:40:54.242Z,2.03
2022-10-19T06:45:57.101Z,2.45
2022-10-19T06:51:02.534Z,2.50
2022-10-19T06:56:07.313Z,2.10
2022-10-19T07:01:11.853Z,2.28
2022-10-19T07:06:16.214Z,2.40
2022-10-19T07:11:22.277Z,1.65
2022-10-19T07:16:24.886Z,1.92
2022-10-19T07:21:28.913Z,2.33
2022-10-19T07:26:33.648Z,2.00
2022-10-19T07:31:36.311Z,2.00
2022-10-19T07:36:44.838Z,2.50
2022-10-19T07:41:47.696Z,1.83
2022-10-19T07:46:50.341Z,1.85
2022-10-19T07:51:56.162Z,2.13
2022-10-19T07:56:59.113Z,1.75
2022-10-19T08:02:04.738Z,2.67
2022-10-19T08:07:09.945Z,2.15
2022-10-19T08:12:15.311Z,2.10
2022-10-19T08:17:18.332Z,1.83
2022-10-19T08:22:22.442Z,2.47
2022-10-19T08:27:25.279Z,2.10
2022-10-19T08:32:27.931Z,2.05
2022-10-19T08:37:44.222Z,2.25
2022-10-19T08:42:54.136Z,2.30
2022-10-19T08:48:01.197Z,2.13
2022-10-19T08:53:11.393Z,2.25
2022-10-19T08:58:23.998Z,1.85
2022-10-19T09:03:54.513Z,1.92
2022-10-19T09:08:58.611Z,1.90
2022-10-19T09:14:06.174Z,2.15
2022-10-19T09:19:14.652Z,1.80
2022-10-19T09:24:28.188Z,1.73
2022-10-19T09:29:36.782Z,1.58
2022-10-19T09:34:42.688Z,1.85
2022-10-19T09:39:52.398Z,1.83
2022-10-19T09:44:59.658Z,1.77
2022-10-19T09:50:16.648Z,1.33
2022-10-19T09:55:27.027Z,1.80
2022-10-19T10:00:37.393Z,1.63
2022-10-19T10:05:41.207Z,1.58
2022-10-19T10:11:05.648Z,1.70
2022-10-19T10:16:09.854Z,1.42
2022-10-19T10:21:15.400Z,1.58
2022-10-19T10:26:20.648Z,1.30
2022-10-19T10:31:25.637Z,1.10
2022-10-19T10:36:29.619Z,1.35
2022-10-19T10:41:38.506Z,1.15
2022-10-19T10:46:45.811Z,1.10
2022-10-19T10:51:53.090Z,1.00
2022-10-19T10:57:06.814Z,1.33
2022-10-19T11:02:18.649Z,1.08
2022-10-19T11:07:24.142Z,1.30
2022-10-19T11:12:35.345Z,1.65
2022-10-19T11:17:38.953Z,1.30
2022-10-19T11:22:45.961Z,1.67
2022-10-19T11:27:54.395Z,1.00
2022-10-19T11:33:01.383Z,0.70
2022-10-19T11:38:20.140Z,1.48
2022-10-19T11:43:32.689Z,1.08
2022-10-19T11:48:54.894Z,0.80
2022-10-19T11:54:08.963Z,0.70
2022-10-19T11:59:20.685Z,1.02
2022-10-19T12:04:43.530Z,0.80
2022-10-19T12:09:52.010Z,0.70
2022-10-19T12:15:00.673Z,1.10
2022-10-19T12:20:06.623Z,0.77
2022-10-19T12:25:14.053Z,0.80
2022-10-19T12:30:19.681Z,1.02
2022-10-19T12:35:31.624Z,0.90
2022-10-19T12:40:39.656Z,0.82
2022-10-19T12:45:45.744Z,0.70
2022-10-19T12:51:05.971Z,0.60
2022-10-19T12:56:11.074Z,0.60
2022-10-19T13:01:19.399Z,0.40
2022-10-19T13:06:31.892Z,1.00
2022-10-19T13:17:01.180Z,0.70
2022-10-19T13:22:26.658Z,0.70
2022-10-19T13:27:38.540Z,0.50
2022-10-19T13:32:44.912Z,0.50
2022-10-19T13:37:47.667Z,0.50
2022-10-19T13:42:58.839Z,0.70
2022-10-19T13:48:09.910Z,0.30
2022-10-19T13:53:23.398Z,0.40
2022-10-19T13:58:39.628Z,0.60
2022-10-19T14:03:56.433Z,0.50
2022-10-19T14:09:22.782Z,0.52
2022-10-19T14:14:26.111Z,0.57
2022-10-19T14:19:41.853Z,0.40
2022-10-19T14:24:44.602Z,0.40
2022-10-19T14:29:49.292Z,0.50
2022-10-19T14:34:54.566Z,0.40
2022-10-19T14:40:06.613Z,0.20
2022-10-19T14:45:17.808Z,0.40
2022-10-19T14:50:24.508Z,0.50
2022-10-19T14:55:32.492Z,0.60
2022-10-19T15:00:35.369Z,0.85
2022-10-19T15:05:42.501Z,0.75
2022-10-19T15:10:46.630Z,0.47
2022-10-19T15:15:51.611Z,0.50
2022-10-19T15:21:12.469Z,0.40
2022-10-19T15:26:21.524Z,0.50
2022-10-19T15:31:26.451Z,0.40
2022-10-19T15:36:31.352Z,0.50
2022-10-19T15:41:35.818Z,0.38
2022-10-19T15:47:22.203Z,0.32
2022-10-19T15:52:27.535Z,0.30
2022-10-19T15:57:32.440Z,0.55
2022-10-19T16:02:35.531Z,0.68
2022-10-19T16:07:41.509Z,1.60
2022-10-19T16:12:44.235Z,0.70
2022-10-19T16:17:48.481Z,0.50
2022-10-19T16:22:52.714Z,0.60
2022-10-19T16:27:55.374Z,1.60
2022-10-19T16:32:58.100Z,1.20
2022-10-19T16:38:02.053Z,0.93
2022-10-19T16:43:04.814Z,1.00
2022-10-19T16:48:07.544Z,1.90
2022-10-19T16:53:12.197Z,1.10
2022-10-19T16:58:14.917Z,1.10
2022-10-19T17:03:17.573Z,0.90
2022-10-19T17:08:23.882Z,0.90
2022-10-19T17:13:29.057Z,1.20
2022-10-19T17:18:31.862Z,1.50
2022-10-19T17:23:36.219Z,2.00
2022-10-19T17:28:40.016Z,2.38
2022-10-19T17:33:42.788Z,2.55
2022-10-19T17:38:47.511Z,2.60
2022-10-19T17:43:52.608Z,2.40
2022-10-19T17:48:55.297Z,3.75
2022-10-19T17:54:00.903Z,2.75
2022-10-19T17:59:04.047Z,3.25
2022-10-19T18:04:06.943Z,3.78
2022-10-19T18:09:10.953Z,4.13
2022-10-19T18:14:13.991Z,4.10
2022-10-19T18:19:17.679Z,4.72
2022-10-19T18:24:21.668Z,5.20
2022-10-19T18:29:26.014Z,6.00
2022-10-19T18:34:28.909Z,6.68
2022-10-19T18:39:33.218Z,7.45
2022-10-19T18:44:35.886Z,8.45
2022-10-19T18:49:38.605Z,6.18
2022-10-19T18:54:42.541Z,6.40
2022-10-19T18:59:45.156Z,6.50
2022-10-19T19:04:47.850Z,6.57
2022-10-19T19:09:52.136Z,6.40
2022-10-19T19:14:54.756Z,6.28
2022-10-19T19:19:57.447Z,5.57
2022-10-19T19:25:01.554Z,5.43
2022-10-19T19:30:04.803Z,5.25
2022-10-19T19:35:07.987Z,5.35
2022-10-19T19:40:12.749Z,5.53
2022-10-19T19:45:15.805Z,4.95
2022-10-19T19:50:18.771Z,4.80
2022-10-19T19:55:22.800Z,4.82
2022-10-19T20:00:25.742Z,5.22
2022-10-19T20:05:29.103Z,5.25
2022-10-19T20:10:33.353Z,5.13
2022-10-19T20:15:38.639Z,5.47
2022-10-19T20:20:41.512Z,4.88
2022-10-19T20:25:45.400Z,4.30
2022-10-19T20:30:48.033Z,5.03
2022-10-19T20:35:50.649Z,4.60
2022-10-19T20:40:54.815Z,3.72
2022-10-19T20:46:03.187Z,2.80
2022-10-19T20:51:10.298Z,2.80
2022-10-19T20:56:15.682Z,2.45
2022-10-19T21:01:19.896Z,2.30
2022-10-19T21:06:24.186Z,2.72
2022-10-19T21:11:29.922Z,2.20
2022-10-19T21:16:33.880Z,2.05
2022-10-19T21:21:38.419Z,1.90
2022-10-19T21:26:42.681Z,2.22
2022-10-19T21:31:48.807Z,2.22
2022-10-19T21:36:52.660Z,2.15
2022-10-19T21:41:57.234Z,2.28
2022-10-19T21:47:00.175Z,2.17
2022-10-19T21:52:02.913Z,2.10
2022-10-19T21:57:06.817Z,2.63
2022-10-19T22:02:09.574Z,2.03
2022-10-19T22:07:12.407Z,2.13
2022-10-19T22:12:16.399Z,3.08
2022-10-19T22:17:19.183Z,1.90
2022-10-19T22:22:21.932Z,2.17
2022-10-19T22:27:26.147Z,2.03
2022-10-19T22:32:28.733Z,2.30
2022-10-19T22:37:31.464Z,1.83
2022-10-19T22:42:36.024Z,2.72
2022-10-19T22:47:38.876Z,2.88
2022-10-19T22:52:41.561Z,3.70
2022-10-19T22:57:45.512Z,5.53
2022-10-19T23:02:48.115Z,6.10
2022-10-19T23:07:50.760Z,5.20
2022-10-19T23:12:55.008Z,4.47
2022-10-19T23:17:58.964Z,3.67
2022-10-19T23:23:01.690Z,2.60
2022-10-19T23:28:06.015Z,1.75
2022-10-19T23:33:08.674Z,1.67
2022-10-19T23:38:11.323Z,1.50
2022-10-19T23:43:15.273Z,1.42
2022-10-19T23:48:18.074Z,1.50
2022-10-19T23:53:20.781Z,1.50
2022-10-19T23:58:24.779Z,1.45
